Time;durP1;ratioP1;P1;durP2;ratioP2;P2;SDS_P1;SDS_P2;PMS_P1;PMS_P2;Temp;Humidity;BMP_temperature;BMP_pressure;BME280_temperature;BME280_humidity;BME280_pressure;Samples;Min_cycle;Max_cycle;Signal;HPM_P1;HPM_P2
2023/06/16 00:02:12;;;;;;;6.80;5.22;;;;;;;21.54;43.53;101732.91;5087462;28;20040;-65
2023/06/16 00:04:37;;;;;;;6.00;4.97;;;;;;;21.52;43.84;101732.38;5080651;28;20043;-65
2023/06/16 00:07:03;;;;;;;5.82;5.20;;;;;;;21.48;44.16;101725.66;5073408;28;20468;-65
2023/06/16 00:09:28;;;;;;;8.48;5.10;;;;;;;21.49;43.80;101722.50;5091835;28;20506;-66
2023/06/16 00:11:55;;;;;;;6.43;5.03;;;;;;;21.46;44.16;101722.31;5088746;28;20044;-65
2023/06/16 00:14:20;;;;;;;7.55;5.25;;;;;;;21.37;44.14;101724.13;5076778;28;20044;-65
2023/06/16 00:16:47;;;;;;;5.55;4.90;;;;;;;21.35;44.26;101718.78;5077172;28;20044;-65
2023/06/16 00:19:13;;;;;;;9.48;5.18;;;;;;;21.23;44.42;101730.50;5077497;28;20104;-66
2023/06/16 00:21:41;;;;;;;7.38;5.07;;;;;;;21.19;44.58;101728.59;5068186;28;20032;-65
2023/06/16 00:24:07;;;;;;;11.23;5.45;;;;;;;21.24;44.38;101725.69;5072783;28;20043;-65
2023/06/16 00:26:32;;;;;;;8.82;6.10;;;;;;;21.18;44.34;101719.28;5075206;28;20025;-65
2023/06/16 00:28:58;;;;;;;7.95;5.68;;;;;;;21.11;44.89;101724.47;5072092;28;20491;-65
2023/06/16 00:31:25;;;;;;;7.47;5.65;;;;;;;21.08;44.89;101725.06;5075046;28;20127;-65
2023/06/16 00:33:51;;;;;;;9.65;6.20;;;;;;;20.97;45.16;101726.34;5070944;28;20030;-65
2023/06/16 00:36:16;;;;;;;7.18;5.97;;;;;;;21.01;45.14;101727.41;5071065;28;20078;-66
2023/06/16 00:38:41;;;;;;;6.95;5.90;;;;;;;20.99;45.04;101729.72;5062960;28;20119;-65
2023/06/16 00:41:06;;;;;;;11.02;5.78;;;;;;;20.92;45.31;101732.88;5074462;28;20031;-65
2023/06/16 00:43:32;;;;;;;9.30;5.85;;;;;;;20.87;45.23;101727.31;5072708;28;20094;-65
2023/06/16 00:45:57;;;;;;;11.18;6.00;;;;;;;20.88;45.13;101725.34;5072955;28;20035;-65
2023/06/16 00:48:23;;;;;;;10.30;6.93;;;;;;;20.78;45.46;101724.31;5071649;28;20036;-64
2023/06/16 00:50:48;;;;;;;10.10;6.10;;;;;;;20.72;45.31;101725.53;5072178;28;20028;-64
2023/06/16 00:53:15;;;;;;;8.52;6.18;;;;;;;20.75;45.28;101722.09;5071918;28;20612;-65
2023/06/16 00:55:41;;;;;;;9.45;6.30;;;;;;;20.76;45.67;101714.47;5063879;28;20135;-66
2023/06/16 00:58:07;;;;;;;8.80;6.55;;;;;;;20.71;45.62;101709.75;5068323;28;20139;-65
2023/06/16 01:00:35;;;;;;;10.27;6.45;;;;;;;20.63;45.36;101716.03;5072688;28;20123;-65
2023/06/16 01:03:04;;;;;;;8.10;6.22;;;;;;;20.59;45.56;101715.81;5071112;28;20024;-65
2023/06/16 01:05:31;;;;;;;10.23;6.85;;;;;;;20.55;45.90;101709.09;5070517;28;20025;-66
2023/06/16 01:08:09;;;;;;;9.80;6.25;;;;;;;20.51;46.08;101707.97;5072463;28;20028;-65
2023/06/16 01:10:53;;;;;;;8.23;6.05;;;;;;;20.47;45.87;101698.41;5078666;28;20522;-66
2023/06/16 01:13:25;;;;;;;10.65;6.47;;;;;;;20.39;45.88;101695.41;5055990;28;20082;-65
2023/06/16 01:15:52;;;;;;;6.72;6.05;;;;;;;20.42;46.25;101708.91;5077644;28;20056;-65
2023/06/16 01:18:22;;;;;;;9.85;6.65;;;;;;;20.35;46.46;101701.63;5092203;28;20028;-65
2023/06/16 01:20:53;;;;;;;9.95;6.57;;;;;;;20.32;46.04;101705.06;5081616;28;20032;-65
2023/06/16 01:23:56;;;;;;;11.32;6.80;;;;;;;20.35;45.53;101698.81;5070843;28;20042;-65
2023/06/16 01:26:23;;;;;;;7.65;6.60;;;;;;;20.24;46.27;101702.91;5087080;28;20039;-65
2023/06/16 01:28:51;;;;;;;10.95;7.18;;;;;;;20.18;46.35;101706.06;5070330;28;20090;-65
2023/06/16 01:31:19;;;;;;;10.20;6.55;;;;;;;20.09;46.49;101700.25;5063242;28;20037;-65
2023/06/16 01:33:46;;;;;;;11.63;6.78;;;;;;;20.07;46.33;101697.69;5063250;28;20510;-66
2023/06/16 01:36:14;;;;;;;8.45;6.47;;;;;;;20.04;46.53;101703.94;5072330;28;20408;-65
2023/06/16 01:38:40;;;;;;;8.90;6.55;;;;;;;20.12;46.49;101705.25;5080799;28;20021;-65
2023/06/16 01:41:06;;;;;;;11.27;7.85;;;;;;;20.04;46.34;101703.09;5071741;28;20169;-65
2023/06/16 01:43:33;;;;;;;10.00;6.97;;;;;;;20.01;46.67;101700.88;5066026;28;20496;-65
2023/06/16 01:45:59;;;;;;;9.68;6.60;;;;;;;20.02;46.74;101699.75;5070952;28;20081;-65
2023/06/16 01:48:24;;;;;;;9.90;6.30;;;;;;;19.96;46.52;101692.44;5080028;28;20107;-65
2023/06/16 01:50:50;;;;;;;10.85;7.03;;;;;;;19.92;46.59;101692.19;5086680;28;20130;-65
2023/06/16 01:53:15;;;;;;;10.95;7.43;;;;;;;19.89;46.37;101694.81;5085470;28;20043;-65
2023/06/16 01:55:51;;;;;;;11.35;7.00;;;;;;;19.88;46.12;101698.72;5083538;28;20031;-65
2023/06/16 01:58:19;;;;;;;12.43;7.47;;;;;;;19.82;46.27;101695.97;5080287;28;20031;-65
2023/06/16 02:00:52;;;;;;;8.90;7.60;;;;;;;19.80;46.17;101703.03;5061523;28;20028;-65
2023/06/16 02:03:43;;;;;;;8.90;7.07;;;;;;;19.83;46.07;101706.09;5079433;28;20104;-65
2023/06/16 02:06:15;;;;;;;10.38;7.20;;;;;;;19.69;46.37;101707.91;5069425;28;20043;-65
2023/06/16 02:08:42;;;;;;;10.75;7.53;;;;;;;19.61;46.66;101705.69;5071788;28;20547;-65
2023/06/16 02:11:08;;;;;;;10.18;7.50;;;;;;;19.63;46.49;101703.44;5070693;28;20533;-65
2023/06/16 02:13:34;;;;;;;10.07;7.60;;;;;;;19.60;46.45;101706.81;5069886;28;20098;-65
2023/06/16 02:16:00;;;;;;;12.93;7.40;;;;;;;19.63;46.63;101714.72;5084326;28;20160;-65
2023/06/16 02:18:27;;;;;;;8.75;7.53;;;;;;;19.61;46.78;101705.69;5077685;28;20087;-65
2023/06/16 02:20:53;;;;;;;10.43;7.55;;;;;;;19.56;46.87;101700.91;5050317;28;20075;-65
2023/06/16 02:23:19;;;;;;;9.40;7.60;;;;;;;19.55;46.88;101706.84;5068654;28;20029;-65
2023/06/16 02:25:44;;;;;;;11.27;7.85;;;;;;;19.49;46.96;101708.00;5073790;28;20476;-65
2023/06/16 02:28:09;;;;;;;10.10;7.38;;;;;;;19.47;46.89;101701.84;5079884;28;20032;-65
2023/06/16 02:30:35;;;;;;;10.85;7.82;;;;;;;19.45;47.01;101701.28;5053656;28;20021;-65
2023/06/16 02:33:00;;;;;;;12.38;7.65;;;;;;;19.36;47.14;101709.53;5068151;28;20115;-65
2023/06/16 02:35:26;;;;;;;12.45;7.47;;;;;;;19.32;47.12;101703.63;5079947;28;20024;-65
2023/06/16 02:37:53;;;;;;;14.00;8.13;;;;;;;19.22;47.18;101711.31;5063169;28;20039;-65
2023/06/16 02:40:18;;;;;;;8.73;7.88;;;;;;;19.27;47.41;101711.28;5068868;28;20021;-65
2023/06/16 02:42:43;;;;;;;11.10;8.00;;;;;;;19.24;47.55;101707.06;5079859;28;20055;-65
2023/06/16 02:45:09;;;;;;;9.30;7.95;;;;;;;19.24;47.26;101707.06;5090794;28;20555;-65
2023/06/16 02:47:35;;;;;;;11.68;7.00;;;;;;;19.21;47.26;101707.63;5083268;28;20036;-65
2023/06/16 02:50:01;;;;;;;12.55;7.85;;;;;;;19.15;47.32;101696.72;5077002;28;20058;-65
2023/06/16 02:52:26;;;;;;;11.60;8.15;;;;;;;19.16;47.13;101704.03;5079443;28;20020;-66
2023/06/16 02:54:51;;;;;;;11.27;7.85;;;;;;;19.10;47.31;101706.03;5071699;28;20489;-65
2023/06/16 02:57:16;;;;;;;9.70;7.32;;;;;;;19.10;47.33;101697.59;5058800;28;20077;-66
2023/06/16 02:59:42;;;;;;;10.85;7.57;;;;;;;19.15;47.39;101697.56;5069680;28;20028;-65
2023/06/16 03:02:07;;;;;;;10.07;8.10;;;;;;;19.12;47.38;101698.13;5084491;28;20035;-65
2023/06/16 03:04:34;;;;;;;9.32;6.93;;;;;;;19.10;47.38;101703.22;5070112;28;20511;-65
2023/06/16 03:07:02;;;;;;;11.55;7.97;;;;;;;19.04;47.68;101699.56;5074420;28;20104;-65
2023/06/16 03:09:27;;;;;;;11.02;7.88;;;;;;;19.05;47.67;101703.22;5083408;28;20031;-65
2023/06/16 03:11:53;;;;;;;8.73;7.72;;;;;;;18.99;47.92;101710.03;5074682;28;20119;-66
2023/06/16 03:14:20;;;;;;;11.30;8.32;;;;;;;19.00;47.78;101706.91;5064039;28;20044;-65
2023/06/16 03:16:48;;;;;;;11.77;8.40;;;;;;;18.99;47.88;101704.41;5073232;28;20043;-65
2023/06/16 03:19:14;;;;;;;11.20;8.43;;;;;;;18.92;47.95;101698.25;5074481;28;20037;-66
2023/06/16 03:21:40;;;;;;;11.55;8.30;;;;;;;18.90;48.32;101704.13;5073948;28;20063;-66
2023/06/16 03:24:08;;;;;;;13.82;8.65;;;;;;;18.88;47.88;101703.59;5074836;28;20433;-66
2023/06/16 03:26:35;;;;;;;11.48;8.95;;;;;;;18.84;48.09;101703.34;5063693;28;20093;-66
2023/06/16 03:29:00;;;;;;;20.45;9.50;;;;;;;18.79;48.12;101706.19;5078978;28;20851;-66
2023/06/16 03:31:26;;;;;;;12.02;9.18;;;;;;;18.76;48.32;101701.13;5092428;28;20111;-66
2023/06/16 03:33:51;;;;;;;12.38;8.65;;;;;;;18.72;48.49;101708.47;5076558;28;20486;-66
2023/06/16 03:36:18;;;;;;;9.95;8.73;;;;;;;18.70;48.54;101705.06;5086266;28;20033;-66
2023/06/16 03:38:43;;;;;;;9.63;8.63;;;;;;;18.66;48.69;101715.19;5091635;28;20160;-66
2023/06/16 03:41:08;;;;;;;12.90;8.52;;;;;;;18.68;48.62;101715.75;5092250;28;20468;-66
2023/06/16 03:43:34;;;;;;;11.27;8.57;;;;;;;18.62;49.00;101711.25;5067110;28;20024;-67
2023/06/16 03:45:59;;;;;;;10.13;8.50;;;;;;;18.63;48.59;101707.34;5093580;28;20024;-66
2023/06/16 03:48:24;;;;;;;12.93;9.20;;;;;;;18.63;48.71;101711.00;5084388;28;20468;-66
2023/06/16 03:50:52;;;;;;;13.98;8.32;;;;;;;18.57;48.85;101714.94;5092480;28;20084;-66
2023/06/16 03:53:18;;;;;;;12.20;8.40;;;;;;;18.56;49.29;101715.22;5091959;28;20502;-66
2023/06/16 03:55:43;;;;;;;14.68;8.90;;;;;;;18.52;49.41;101714.13;5073983;28;20036;-66
2023/06/16 03:58:10;;;;;;;17.25;9.77;;;;;;;18.51;49.21;101712.41;5071056;28;20425;-66
2023/06/16 04:00:35;;;;;;;14.73;9.32;;;;;;;18.42;49.27;101716.94;5067185;28;20495;-67
2023/06/16 04:03:01;;;;;;;13.80;9.02;;;;;;;18.44;49.11;101717.53;5073364;28;20032;-66
2023/06/16 04:05:26;;;;;;;13.68;10.27;;;;;;;18.46;49.13;101720.88;5072447;28;20027;-67
2023/06/16 04:07:54;;;;;;;13.52;9.05;;;;;;;18.41;49.06;101721.72;5072871;28;20040;-66
2023/06/16 04:10:19;;;;;;;13.93;9.65;;;;;;;18.40;49.20;101722.88;5076924;28;20020;-66
2023/06/16 04:12:45;;;;;;;13.15;9.77;;;;;;;18.37;49.53;101720.63;5070855;28;20036;-66
2023/06/16 04:15:10;;;;;;;13.10;10.07;;;;;;;18.37;49.32;101721.47;5072322;28;20044;-66
2023/06/16 04:17:36;;;;;;;15.90;10.07;;;;;;;18.35;49.65;101732.16;5064093;28;20028;-66
2023/06/16 04:20:03;;;;;;;13.10;9.38;;;;;;;18.37;49.49;101732.69;5071244;28;20043;-66
2023/06/16 04:22:28;;;;;;;12.73;9.20;;;;;;;18.34;49.71;101738.03;5071856;28;20547;-65
2023/06/16 04:24:54;;;;;;;14.00;9.82;;;;;;;18.33;49.78;101736.38;5074121;28;20039;-66
2023/06/16 04:27:22;;;;;;;17.15;10.20;;;;;;;18.32;50.04;101738.34;5076790;28;20166;-66
2023/06/16 04:29:49;;;;;;;13.20;10.75;;;;;;;18.35;49.77;101731.28;5072868;28;20111;-65
2023/06/16 04:32:15;;;;;;;16.40;9.57;;;;;;;18.34;50.12;101735.22;5069475;28;20137;-65
2023/06/16 04:34:40;;;;;;;11.38;9.48;;;;;;;18.33;50.03;101734.41;5056324;28;20071;-66
2023/06/16 04:37:06;;;;;;;11.63;9.60;;;;;;;18.33;50.49;101736.38;5052825;28;20064;-66
2023/06/16 04:39:31;;;;;;;12.70;10.43;;;;;;;18.30;50.14;101737.75;5058879;28;20029;-66
2023/06/16 04:41:57;;;;;;;13.27;10.07;;;;;;;18.39;50.59;101741.69;5069861;28;20060;-66
2023/06/16 04:44:23;;;;;;;15.00;10.13;;;;;;;18.36;50.68;101735.81;5071839;28;20036;-66
2023/06/16 04:46:48;;;;;;;13.52;10.95;;;;;;;18.38;50.83;101745.63;5075893;28;20046;-66
2023/06/16 04:49:14;;;;;;;14.27;10.52;;;;;;;18.42;51.16;101743.09;5076569;28;20547;-66
2023/06/16 04:51:39;;;;;;;15.18;10.80;;;;;;;18.45;50.91;101733.25;5070706;28;20392;-66
2023/06/16 04:54:04;;;;;;;16.55;10.82;;;;;;;18.50;50.83;101734.06;5071513;28;20098;-66
2023/06/16 04:56:30;;;;;;;14.68;11.07;;;;;;;18.50;50.63;101741.66;5072637;28;20104;-66
2023/06/16 04:58:55;;;;;;;14.55;11.10;;;;;;;18.51;50.86;101744.22;5072483;28;20498;-66
2023/06/16 05:01:20;;;;;;;14.68;10.57;;;;;;;18.56;50.66;101746.16;5064066;28;20029;-66
2023/06/16 05:03:46;;;;;;;12.40;10.43;;;;;;;18.57;50.85;101742.22;5073355;28;20037;-66
2023/06/16 05:06:11;;;;;;;12.55;10.45;;;;;;;18.60;50.60;101747.28;5073351;28;20161;-66
2023/06/16 05:08:36;;;;;;;12.70;10.10;;;;;;;18.65;49.94;101745.28;5070937;28;20063;-65
2023/06/16 05:11:02;;;;;;;14.00;9.05;;;;;;;18.67;48.10;101739.38;5062647;28;20028;-66
2023/06/16 05:13:27;;;;;;;10.90;8.82;;;;;;;18.69;48.46;101744.72;5073018;28;20020;-66
2023/06/16 05:15:53;;;;;;;11.57;9.45;;;;;;;18.69;48.05;101748.34;5077540;28;20040;-66
2023/06/16 05:18:18;;;;;;;14.82;9.32;;;;;;;18.74;47.70;101745.56;5072400;28;20040;-66
2023/06/16 05:20:44;;;;;;;11.88;9.13;;;;;;;18.81;47.69;101748.91;5071959;28;20539;-66
2023/06/16 05:23:09;;;;;;;12.25;9.82;;;;;;;18.85;47.60;101747.19;5071258;28;20028;-66
2023/06/16 05:25:35;;;;;;;12.38;9.73;;;;;;;18.92;47.66;101751.69;5071707;28;20098;-66
2023/06/16 05:28:00;;;;;;;13.32;9.88;;;;;;;19.01;47.57;101752.78;5061745;28;20055;-66
2023/06/16 05:30:25;;;;;;;15.60;9.77;;;;;;;19.05;47.27;101754.72;5065729;28;20038;-66
2023/06/16 05:32:50;;;;;;;11.48;10.25;;;;;;;19.03;47.38;101745.72;5071327;28;20472;-66
2023/06/16 05:35:16;;;;;;;15.68;9.73;;;;;;;19.17;47.50;101753.53;5071842;28;20043;-65
2023/06/16 05:37:41;;;;;;;14.00;10.57;;;;;;;19.18;47.47;101752.41;5071228;28;20501;-66
2023/06/16 05:40:07;;;;;;;10.50;9.45;;;;;;;19.27;47.15;101750.69;5080644;28;20016;-65
2023/06/16 05:42:33;;;;;;;12.40;10.60;;;;;;;19.37;46.67;101759.06;5071918;28;20031;-66
2023/06/16 05:44:58;;;;;;;15.40;10.20;;;;;;;19.44;46.15;101755.94;5053562;28;20057;-66
2023/06/16 05:47:24;;;;;;;13.38;10.82;;;;;;;19.49;46.27;101756.75;5055177;28;20040;-65
2023/06/16 05:49:49;;;;;;;12.88;10.93;;;;;;;19.57;45.81;101758.06;5070788;28;20028;-65
2023/06/16 05:52:14;;;;;;;14.35;11.68;;;;;;;19.64;45.70;101754.97;5068480;28;20029;-66
2023/06/16 05:54:40;;;;;;;13.07;11.07;;;;;;;19.67;46.02;101758.06;5072364;28;20028;-65
2023/06/16 05:57:06;;;;;;;16.30;11.43;;;;;;;19.63;45.83;101759.78;5086827;28;20035;-65
2023/06/16 05:59:31;;;;;;;14.75;11.25;;;;;;;19.75;45.75;101763.06;5086143;28;20059;-65
2023/06/16 06:01:57;;;;;;;13.63;10.45;;;;;;;19.84;45.66;101766.09;5069263;28;20016;-65
2023/06/16 06:04:30;;;;;;;13.93;10.68;;;;;;;19.88;46.18;101766.34;5072325;28;20361;-65
2023/06/16 06:06:56;;;;;;;12.70;10.20;;;;;;;20.01;45.61;101771.34;5070558;28;20051;-65
2023/06/16 06:09:21;;;;;;;13.82;10.95;;;;;;;20.05;45.20;101769.59;5077118;28;20511;-65
2023/06/16 06:11:46;;;;;;;16.38;11.55;;;;;;;20.13;45.55;101770.94;5080626;28;20040;-65
2023/06/16 06:14:12;;;;;;;16.73;10.98;;;;;;;20.17;45.62;101770.06;5062424;28;20562;-66
2023/06/16 06:16:38;;;;;;;10.68;7.72;;;;;;;20.39;49.11;101774.34;5069676;28;20073;-68
2023/06/16 06:19:03;;;;;;;7.10;5.28;;;;;;;20.57;47.86;101768.84;5070179;28;20111;-64
2023/06/16 06:21:28;;;;;;;5.57;4.55;;;;;;;20.73;47.15;101768.66;5073604;28;20120;-65
2023/06/16 06:23:54;;;;;;;6.57;4.18;;;;;;;20.94;46.82;101769.25;5076332;28;20028;-64
2023/06/16 06:26:20;;;;;;;9.15;5.50;;;;;;;20.99;46.40;101774.88;5071606;28;20021;-64
2023/06/16 06:28:45;;;;;;;10.80;5.25;;;;;;;21.13;46.20;101780.59;5072330;28;20025;-64
2023/06/16 06:31:11;;;;;;;7.68;5.32;;;;;;;21.19;46.10;101782.22;5083641;28;20032;-65
2023/06/16 06:33:36;;;;;;;7.45;5.20;;;;;;;21.35;45.97;101780.91;5067075;28;20054;-64
2023/06/16 06:36:01;;;;;;;7.75;5.68;;;;;;;21.36;45.48;101784.56;5066976;28;20036;-63
2023/06/16 06:38:26;;;;;;;9.05;7.25;;;;;;;21.39;43.79;101786.81;5073541;28;20040;-64
2023/06/16 06:40:52;;;;;;;7.75;6.07;;;;;;;21.48;44.80;101785.81;5067906;28;20103;-64
2023/06/16 06:43:17;;;;;;;13.70;10.85;;;;;;;21.41;42.26;101787.31;5070180;28;20036;-65
2023/06/16 06:45:44;;;;;;;6.45;5.80;;;;;;;21.57;44.79;101794.44;5069411;28;20023;-64
2023/06/16 06:48:10;;;;;;;10.70;9.43;;;;;;;21.56;44.04;101792.75;5067265;28;20040;-64
2023/06/16 06:50:35;;;;;;;11.25;6.53;;;;;;;21.65;42.16;101785.25;5072546;28;20148;-63
2023/06/16 06:53:01;;;;;;;11.90;9.60;;;;;;;21.61;40.56;101789.00;5057618;28;20036;-63
2023/06/16 06:55:26;;;;;;;10.98;7.93;;;;;;;21.61;43.08;101780.53;5064349;28;20032;-65
2023/06/16 06:57:51;;;;;;;9.55;6.32;;;;;;;21.75;43.54;101796.44;5068863;28;20068;-63
2023/06/16 07:00:17;;;;;;;8.05;5.40;;;;;;;21.81;43.48;101795.22;5067605;28;20029;-63
2023/06/16 07:02:42;;;;;;;10.00;6.05;;;;;;;21.92;42.73;101793.03;5087012;28;20032;-64
2023/06/16 07:05:08;;;;;;;8.23;5.60;;;;;;;21.98;41.34;101793.81;5081725;28;20532;-64
2023/06/16 07:07:34;;;;;;;10.55;5.55;;;;;;;22.02;41.90;101795.72;5067008;28;20040;-64
2023/06/16 07:09:59;;;;;;;7.90;6.20;;;;;;;22.07;41.82;101794.78;5061160;28;20020;-64
2023/06/16 07:12:24;;;;;;;10.77;6.03;;;;;;;22.10;41.08;101796.16;5061833;28;20040;-64
2023/06/16 07:14:49;;;;;;;6.88;5.43;;;;;;;22.15;40.54;101796.94;5048194;28;20041;-64
2023/06/16 07:17:15;;;;;;;9.50;5.10;;;;;;;22.26;41.15;101797.63;5052791;28;20032;-64
2023/06/16 07:19:40;;;;;;;9.98;5.07;;;;;;;22.29;41.14;101800.66;5069253;28;20036;-64
2023/06/16 07:22:05;;;;;;;9.23;6.25;;;;;;;22.33;39.03;101791.56;5068360;28;20380;-64
2023/06/16 07:24:31;;;;;;;5.82;5.10;;;;;;;22.36;41.03;101794.63;5076006;28;20032;-64
2023/06/16 07:26:59;;;;;;;6.43;4.63;;;;;;;22.44;40.23;101801.53;5049223;28;20063;-64
2023/06/16 07:29:25;;;;;;;5.80;4.75;;;;;;;22.51;40.10;101799.97;5048365;28;20159;-63
2023/06/16 07:31:50;;;;;;;7.75;4.95;;;;;;;22.55;39.67;101800.19;5066233;28;20127;-64
2023/06/16 07:34:15;;;;;;;11.93;6.43;;;;;;;22.60;38.67;101800.13;5068596;28;20047;-63
2023/06/16 07:36:41;;;;;;;7.28;4.90;;;;;;;22.62;39.44;101799.78;5052655;28;20060;-64
2023/06/16 07:39:06;;;;;;;6.15;5.10;;;;;;;22.66;38.42;101789.53;5077085;28;20031;-64
2023/06/16 07:41:32;;;;;;;9.52;5.40;;;;;;;22.70;38.28;101796.25;5086544;28;20031;-63
2023/06/16 07:43:57;;;;;;;11.48;6.45;;;;;;;22.72;37.23;101791.97;5086060;28;20027;-63
2023/06/16 07:46:23;;;;;;;7.88;5.25;;;;;;;22.83;37.81;101797.41;5068852;28;20054;-65
2023/06/16 07:48:48;;;;;;;10.02;7.28;;;;;;;22.79;36.46;101794.34;5060679;28;20419;-65
2023/06/16 07:51:13;;;;;;;9.40;5.93;;;;;;;22.86;38.05;101796.78;5068771;28;20047;-64
2023/06/16 07:53:42;;;;;;;9.30;6.28;;;;;;;22.92;37.25;101792.75;5078578;28;20118;-65
2023/06/16 07:56:08;;;;;;;13.15;6.10;;;;;;;22.99;37.76;101790.31;5068993;28;20032;-65
2023/06/16 07:58:35;;;;;;;7.38;6.20;;;;;;;23.06;37.79;101799.22;5066424;28;20051;-64
2023/06/16 08:01:01;;;;;;;7.78;5.70;;;;;;;23.08;37.21;101796.09;5068535;28;20058;-64
2023/06/16 08:03:26;;;;;;;7.38;5.78;;;;;;;23.13;36.90;101787.50;5084470;28;20092;-63
2023/06/16 08:05:52;;;;;;;14.82;6.28;;;;;;;23.15;36.12;101790.84;5082369;28;20047;-63
2023/06/16 08:08:18;;;;;;;9.07;5.15;;;;;;;23.21;37.05;101781.09;5083278;28;20165;-63
2023/06/16 08:10:44;;;;;;;7.88;5.45;;;;;;;23.25;36.53;101785.78;5078460;28;20033;-63
2023/06/16 08:13:09;;;;;;;7.72;4.97;;;;;;;23.26;35.14;101780.97;5090991;28;20228;-63
2023/06/16 08:15:35;;;;;;;7.80;4.47;;;;;;;23.32;36.43;101791.03;5082465;28;20040;-63
2023/06/16 08:18:01;;;;;;;6.70;5.63;;;;;;;23.46;34.55;101788.16;5071150;28;20024;-63
2023/06/16 08:20:26;;;;;;;8.25;5.28;;;;;;;23.46;35.51;101785.34;5085247;28;20031;-63
2023/06/16 08:22:52;;;;;;;7.60;5.50;;;;;;;23.49;34.08;101785.53;5071207;28;20134;-63
2023/06/16 08:25:18;;;;;;;7.85;5.15;;;;;;;23.52;33.20;101778.41;5071921;28;20511;-63
2023/06/16 08:27:43;;;;;;;7.72;5.55;;;;;;;23.58;32.66;101781.94;5073070;28;20147;-64
2023/06/16 08:30:10;;;;;;;6.78;4.72;;;;;;;23.60;33.17;101779.66;5078183;28;20044;-64
2023/06/16 08:32:35;;;;;;;8.55;5.38;;;;;;;23.69;33.41;101778.59;5069568;28;20028;-63
2023/06/16 08:35:00;;;;;;;9.93;4.95;;;;;;;23.80;32.07;101779.19;5072994;28;20020;-64
2023/06/16 08:37:27;;;;;;;9.43;4.70;;;;;;;23.81;31.97;101778.03;5092098;28;20055;-63
2023/06/16 08:39:52;;;;;;;5.60;5.07;;;;;;;23.82;33.17;101779.72;5064596;28;20024;-64
2023/06/16 08:42:20;;;;;;;6.70;4.60;;;;;;;23.79;32.99;101774.69;5066412;28;20031;-64
2023/06/16 08:44:46;;;;;;;5.47;4.97;;;;;;;23.91;32.28;101774.13;5059976;28;20479;-64
2023/06/16 08:47:11;;;;;;;9.38;5.22;;;;;;;23.92;31.51;101779.44;5071559;28;20017;-64
2023/06/16 08:49:39;;;;;;;6.63;5.10;;;;;;;23.96;31.51;101771.16;5068249;28;20093;-64
2023/06/16 08:52:08;;;;;;;6.97;5.60;;;;;;;23.96;32.21;101776.81;5060486;28;20995;-64
2023/06/16 08:54:46;;;;;;;9.45;5.10;;;;;;;24.13;33.06;101779.81;5060970;28;20070;-64
2023/06/16 08:57:13;;;;;;;6.90;5.43;;;;;;;24.08;32.94;101777.06;5072065;28;20035;-64
2023/06/16 08:59:40;;;;;;;7.22;5.45;;;;;;;24.11;32.54;101773.59;5061734;28;20052;-63
2023/06/16 09:02:06;;;;;;;8.15;4.40;;;;;;;24.12;33.30;101771.59;5064425;28;20036;-63
2023/06/16 09:04:33;;;;;;;7.88;5.97;;;;;;;24.15;33.48;101774.63;5069610;28;20048;-63
2023/06/16 09:06:59;;;;;;;5.50;4.90;;;;;;;24.21;33.42;101773.34;5072114;28;20112;-63
2023/06/16 09:09:24;;;;;;;5.85;4.10;;;;;;;24.24;32.55;101766.16;5071339;28;20036;-63
2023/06/16 09:12:07;;;;;;;4.15;3.75;;;;;;;24.37;32.97;101770.94;5071162;28;20036;-63
2023/06/16 09:14:33;;;;;;;6.65;4.30;;;;;;;24.38;31.52;101775.47;5070062;28;20052;-63
2023/06/16 09:17:05;;;;;;;5.78;4.10;;;;;;;24.48;30.27;101774.34;5070268;28;20056;-63
2023/06/16 09:19:34;;;;;;;4.70;4.10;;;;;;;24.48;30.45;101780.91;5069433;28;20024;-63
2023/06/16 09:22:00;;;;;;;5.13;3.95;;;;;;;24.60;30.75;101773.75;5066019;28;20423;-64
2023/06/16 09:24:29;;;;;;;5.75;3.95;;;;;;;24.67;30.83;101774.13;5071495;28;20024;-63
2023/06/16 09:27:02;;;;;;;6.25;4.22;;;;;;;24.78;30.76;101774.69;5071152;28;20029;-64
2023/06/16 09:29:28;;;;;;;6.95;4.50;;;;;;;24.70;29.76;101782.84;5070277;28;20476;-63
2023/06/16 09:32:06;;;;;;;6.05;3.83;;;;;;;24.78;30.55;101774.69;5069667;28;20033;-64
2023/06/16 09:34:32;;;;;;;6.93;4.15;;;;;;;24.78;30.71;101774.69;5064278;28;20664;-64
2023/06/16 09:36:58;;;;;;;5.85;3.75;;;;;;;24.85;30.23;101769.38;5067874;28;20392;-64
2023/06/16 09:39:24;;;;;;;8.65;4.18;;;;;;;24.84;29.62;101773.38;5071061;28;20025;-63
2023/06/16 09:41:50;;;;;;;5.25;3.83;;;;;;;24.84;28.74;101779.91;5070014;28;20055;-63
2023/06/16 09:44:16;;;;;;;4.70;3.90;;;;;;;24.84;28.23;101768.53;5069491;28;20032;-63
2023/06/16 09:46:42;;;;;;;5.82;4.15;;;;;;;24.92;28.74;101764.91;5069133;28;20039;-63
2023/06/16 09:49:21;;;;;;;5.03;4.07;;;;;;;24.90;30.00;101772.06;5069821;28;20200;-63
2023/06/16 09:51:55;;;;;;;6.25;4.00;;;;;;;25.03;29.27;101764.56;5062065;28;20100;-64
2023/06/16 09:54:22;;;;;;;6.72;4.38;;;;;;;25.08;29.58;101768.13;5050745;28;20029;-63
2023/06/16 09:56:48;;;;;;;5.22;3.97;;;;;;;25.09;28.88;101761.31;5049617;28;20025;-64
2023/06/16 09:59:13;;;;;;;5.60;4.03;;;;;;;25.13;28.46;101764.31;5050272;28;20035;-63
2023/06/16 10:01:40;;;;;;;4.45;3.70;;;;;;;25.16;27.67;101761.66;5066546;28;20032;-63
2023/06/16 10:04:08;;;;;;;7.20;4.10;;;;;;;25.12;27.38;101751.28;5069719;28;20028;-63
2023/06/16 10:06:36;;;;;;;4.80;3.88;;;;;;;25.27;28.37;101755.66;5070220;28;20032;-64
2023/06/16 10:09:02;;;;;;;5.85;3.75;;;;;;;25.22;28.59;101763.16;5062784;28;20040;-64
2023/06/16 10:11:29;;;;;;;5.30;3.90;;;;;;;25.20;29.63;101759.00;5089902;28;20085;-63
2023/06/16 10:13:58;;;;;;;3.90;3.60;;;;;;;25.31;28.98;101751.84;5090401;28;20044;-63
2023/06/16 10:16:27;;;;;;;5.45;4.15;;;;;;;25.27;27.38;101758.47;5065259;28;20056;-64
2023/06/16 10:18:57;;;;;;;5.15;4.18;;;;;;;25.42;27.78;101746.66;5069258;28;20021;-64
2023/06/16 10:21:23;;;;;;;4.70;3.38;;;;;;;25.36;26.99;101745.97;5066658;28;20097;-64
2023/06/16 10:23:49;;;;;;;4.80;4.05;;;;;;;25.47;27.10;101749.34;5069585;28;20028;-64
2023/06/16 10:26:15;;;;;;;8.15;4.20;;;;;;;25.48;28.12;101750.19;5069293;28;20074;-64
2023/06/16 10:28:41;;;;;;;5.55;4.50;;;;;;;25.46;27.93;101751.34;5070078;28;20028;-64
2023/06/16 10:31:08;;;;;;;6.03;4.30;;;;;;;25.49;27.32;101747.00;5062672;28;20033;-65
2023/06/16 10:34:16;;;;;;;6.95;4.10;;;;;;;25.50;28.25;101748.66;5066813;28;20070;-64
2023/06/16 10:36:42;;;;;;;5.65;4.00;;;;;;;25.53;27.42;101741.47;5046568;28;20037;-64
2023/06/16 10:39:10;;;;;;;6.07;4.00;;;;;;;25.52;27.47;101743.50;5066207;28;20044;-64
2023/06/16 10:41:48;;;;;;;4.40;4.00;;;;;;;25.59;28.15;101737.31;5069761;28;20032;-64
2023/06/16 10:44:27;;;;;;;6.07;3.90;;;;;;;25.60;27.51;101731.28;5068524;28;20023;-64
2023/06/16 10:47:04;;;;;;;6.43;4.28;;;;;;;25.67;27.28;101737.31;5069240;28;20035;-64
2023/06/16 10:49:30;;;;;;;6.93;3.55;;;;;;;25.73;26.70;101731.44;5068225;28;20067;-64
2023/06/16 10:51:58;;;;;;;4.43;4.03;;;;;;;25.66;25.94;101726.25;5073761;28;20062;-64
2023/06/16 10:54:32;;;;;;;4.85;3.90;;;;;;;25.80;26.39;101734.66;5089330;28;20470;-64
2023/06/16 10:57:05;;;;;;;4.70;3.83;;;;;;;25.92;26.08;101731.97;5089839;28;20399;-64
2023/06/16 10:59:50;;;;;;;7.22;3.88;;;;;;;25.94;26.92;101739.00;5068885;28;20103;-64
2023/06/16 11:02:18;;;;;;;5.35;4.03;;;;;;;25.97;27.05;101720.41;5065147;28;20044;-64
2023/06/16 11:05:10;;;;;;;7.80;3.63;;;;;;;26.04;27.55;101731.28;5049255;28;20029;-64
2023/06/16 11:08:05;;;;;;;4.53;3.40;;;;;;;25.93;28.30;101719.41;5048111;28;20029;-64
2023/06/16 11:10:46;;;;;;;6.45;4.28;;;;;;;26.01;26.50;101723.41;5049578;28;20036;-64
2023/06/16 11:13:14;;;;;;;7.72;4.20;;;;;;;26.07;26.21;101724.94;5050223;28;20029;-64
2023/06/16 11:15:42;;;;;;;4.80;4.20;;;;;;;26.04;25.92;101717.91;5059102;28;20125;-64
2023/06/16 11:18:07;;;;;;;6.03;3.90;;;;;;;26.15;27.13;101721.22;5067103;28;20021;-65
2023/06/16 11:20:35;;;;;;;5.18;4.28;;;;;;;26.07;25.49;101720.06;5068263;28;20742;-64